createdAt,value
2022-10-18T00:01:43.878Z,101361.66
2022-10-18T00:04:11.901Z,101358.91
2022-10-18T00:06:43.376Z,101357.34
2022-10-18T00:09:12.029Z,101354.03
2022-10-18T00:11:41.662Z,101362.03
2022-10-18T00:14:09.633Z,101354.06
2022-10-18T00:16:37.674Z,101345.25
2022-10-18T00:19:05.778Z,101342.63
2022-10-18T00:21:33.871Z,101341.06
2022-10-18T00:24:01.929Z,101339.34
2022-10-18T00:26:31.866Z,101347.34
2022-10-18T00:29:03.093Z,101343.84
2022-10-18T00:31:33.184Z,101343.03
2022-10-18T00:34:02.637Z,101343.81
2022-10-18T00:36:34.290Z,101339.47
2022-10-18T00:39:02.766Z,101334.31
2022-10-18T00:41:33.058Z,101343.94
2022-10-18T00:44:04.531Z,101344.59
2022-10-18T00:46:34.065Z,101338.63
2022-10-18T00:49:05.409Z,101331.94
2022-10-18T00:51:48.214Z,101340.75
2022-10-18T00:54:17.817Z,101336.50
2022-10-18T00:56:46.319Z,101328.72
2022-10-18T00:59:17.315Z,101328.97
2022-10-18T01:01:46.395Z,101330.75
2022-10-18T01:04:16.887Z,101329.84
2022-10-18T01:06:52.835Z,101329.03
2022-10-18T01:09:29.787Z,101332.53
2022-10-18T01:12:15.518Z,101319.31
2022-10-18T01:14:51.166Z,101315.72
2022-10-18T01:17:22.098Z,101319.38
2022-10-18T01:20:18.022Z,101304.66
2022-10-18T01:22:49.829Z,101304.78
2022-10-18T01:25:37.056Z,101303.97
2022-10-18T01:28:25.415Z,101297.00
2022-10-18T01:30:59.990Z,101300.44
2022-10-18T01:33:34.403Z,101300.44
2022-10-18T01:36:08.772Z,101286.50
2022-10-18T01:38:39.566Z,101294.78
2022-10-18T01:41:13.222Z,101296.25
2022-10-18T01:43:44.874Z,101293.53
2022-10-18T01:46:18.629Z,101287.53
2022-10-18T01:48:47.334Z,101280.53
2022-10-18T01:51:15.366Z,101269.88
2022-10-18T01:53:43.370Z,101273.31
2022-10-18T01:56:26.731Z,101277.69
2022-10-18T01:59:04.281Z,101275.25
2022-10-18T02:01:42.393Z,101275.28
2022-10-18T02:04:21.496Z,101273.50
2022-10-18T02:06:57.570Z,101276.19
2022-10-18T02:09:35.142Z,101269.22
2022-10-18T02:12:04.816Z,101269.25
2022-10-18T02:14:34.334Z,101269.38
2022-10-18T02:17:09.315Z,101259.97
2022-10-18T02:19:42.001Z,101266.91
2022-10-18T02:22:15.132Z,101264.44
2022-10-18T02:24:47.444Z,101266.41
2022-10-18T02:27:15.747Z,101262.00
2022-10-18T02:29:45.461Z,101271.81
2022-10-18T02:32:21.323Z,101270.94
2022-10-18T02:34:58.381Z,101270.25
2022-10-18T02:37:30.943Z,101267.63
2022-10-18T02:39:59.088Z,101267.81
2022-10-18T02:42:27.082Z,101270.63
2022-10-18T02:44:55.069Z,101267.16
2022-10-18T02:47:24.465Z,101265.44
2022-10-18T02:49:52.437Z,101267.28
2022-10-18T02:52:20.434Z,101268.97
2022-10-18T02:54:48.412Z,101263.78
2022-10-18T02:57:16.400Z,101264.72
2022-10-18T02:59:44.377Z,101265.44
2022-10-18T03:02:12.401Z,101265.44
2022-10-18T03:04:41.805Z,101263.72
2022-10-18T03:07:09.798Z,101262.56
2022-10-18T03:09:37.809Z,101261.53
2022-10-18T03:12:06.171Z,101264.38
2022-10-18T03:14:34.212Z,101278.25
2022-10-18T03:17:02.204Z,101279.03
2022-10-18T03:19:30.300Z,101276.19
2022-10-18T03:21:59.667Z,101268.75
2022-10-18T03:24:27.753Z,101273.75
2022-10-18T03:26:55.711Z,101273.63
2022-10-18T03:29:23.686Z,101278.91
2022-10-18T03:31:51.758Z,101278.81
2022-10-18T03:34:19.794Z,101282.25
2022-10-18T03:36:47.786Z,101284.16
2022-10-18T03:39:17.348Z,101280.97
2022-10-18T03:41:45.461Z,101280.88
2022-10-18T03:44:13.612Z,101277.38
2022-10-18T03:46:41.793Z,101277.50
2022-10-18T03:49:09.802Z,101285.56
2022-10-18T03:51:37.788Z,101284.75
2022-10-18T03:54:05.933Z,101284.06
2022-10-18T03:56:35.323Z,101281.31
2022-10-18T03:59:04.608Z,101288.41
2022-10-18T04:01:32.706Z,101292.88
2022-10-18T04:04:00.779Z,101283.47
2022-10-18T04:06:28.883Z,101280.16
2022-10-18T04:08:57.161Z,101277.72
2022-10-18T04:11:25.132Z,101285.72
2022-10-18T04:13:54.520Z,101281.56
2022-10-18T04:16:22.545Z,101284.25
2022-10-18T04:18:50.557Z,101280.81
2022-10-18T04:21:18.584Z,101281.91
2022-10-18T04:23:48.557Z,101275.97
2022-10-18T04:26:17.255Z,101282.19
2022-10-18T04:28:45.693Z,101278.00
2022-10-18T04:31:15.407Z,101277.34
2022-10-18T04:33:43.379Z,101283.56
2022-10-18T04:36:11.379Z,101286.34
2022-10-18T04:38:39.364Z,101281.25
2022-10-18T04:41:07.599Z,101270.91
2022-10-18T04:43:35.851Z,101271.03
2022-10-18T04:46:04.062Z,101262.41
2022-10-18T04:48:33.642Z,101267.63
2022-10-18T04:51:01.660Z,101260.72
2022-10-18T04:53:29.633Z,101261.59
2022-10-18T04:55:57.650Z,101260.03
2022-10-18T04:58:25.905Z,101255.69
2022-10-18T05:00:53.978Z,101267.88
2022-10-18T05:03:22.011Z,101256.56
2022-10-18T05:06:04.448Z,101252.16
2022-10-18T05:08:33.577Z,101250.34
2022-10-18T05:11:02.448Z,101252.25
2022-10-18T05:13:31.132Z,101256.59
2022-10-18T05:15:59.589Z,101256.56
2022-10-18T05:18:28.022Z,101257.41
2022-10-18T05:20:57.758Z,101256.44
2022-10-18T05:23:25.957Z,101255.53
2022-10-18T05:25:54.021Z,101262.28
2022-10-18T05:31:12.224Z,101260.25
2022-10-18T05:33:40.484Z,101264.50
2022-10-18T05:36:10.785Z,101257.34
2022-10-18T05:38:42.327Z,101265.97
2022-10-18T05:41:10.729Z,101265.88
2022-10-18T05:43:38.766Z,101256.75
2022-10-18T05:46:13.695Z,101256.44
2022-10-18T05:48:43.283Z,101257.06
2022-10-18T05:51:12.645Z,101252.88
2022-10-18T05:53:40.620Z,101248.66
2022-10-18T05:56:11.878Z,101258.50
2022-10-18T05:58:40.194Z,101255.38
2022-10-18T06:01:08.733Z,101257.44
2022-10-18T06:03:37.318Z,101260.50
2022-10-18T06:06:07.525Z,101257.19
2022-10-18T06:08:37.272Z,101262.72
2022-10-18T06:11:08.320Z,101254.25
2022-10-18T06:13:36.468Z,101256.41
2022-10-18T06:16:04.496Z,101261.91
2022-10-18T06:18:32.472Z,101265.13
2022-10-18T06:21:00.918Z,101265.50
2022-10-18T06:23:29.421Z,101267.72
2022-10-18T06:26:01.579Z,101269.81
2022-10-18T06:28:30.728Z,101279.78
2022-10-18T06:30:59.205Z,101274.94
2022-10-18T06:33:27.731Z,101256.03
2022-10-18T06:35:57.249Z,101271.84
2022-10-18T06:38:25.388Z,101265.94
2022-10-18T06:40:53.376Z,101260.19
2022-10-18T06:43:23.153Z,101266.69
2022-10-18T06:45:51.885Z,101270.63
2022-10-18T06:50:55.174Z,101261.81
2022-10-18T06:53:23.197Z,101266.63
2022-10-18T06:55:51.155Z,101267.03
2022-10-18T06:58:19.483Z,101272.81
2022-10-18T07:00:48.867Z,101284.97
2022-10-18T07:03:16.838Z,101286.38
2022-10-18T07:05:44.846Z,101287.72
2022-10-18T07:08:12.873Z,101281.06
2022-10-18T07:10:41.128Z,101280.00
2022-10-18T07:13:31.048Z,101277.16
2022-10-18T07:16:06.878Z,101277.59
2022-10-18T07:18:35.736Z,101272.09
2022-10-18T07:21:07.437Z,101262.16
2022-10-18T07:23:36.120Z,101267.03
2022-10-18T07:26:06.391Z,101261.44
2022-10-18T07:28:34.825Z,101253.44
2022-10-18T07:31:07.542Z,101255.44
2022-10-18T07:33:35.275Z,101259.56
2022-10-18T07:36:03.600Z,101248.84
2022-10-18T07:38:31.652Z,101253.84
2022-10-18T07:41:00.454Z,101249.16
2022-10-18T07:43:28.688Z,101254.81
2022-10-18T07:45:58.343Z,101254.72
2022-10-18T07:48:28.628Z,101251.09
2022-10-18T07:51:00.037Z,101259.66
2022-10-18T07:53:28.194Z,101254.97
2022-10-18T07:55:59.764Z,101255.50
2022-10-18T07:58:28.940Z,101251.53
2022-10-18T08:00:56.944Z,101251.97
2022-10-18T08:03:24.964Z,101243.69
2022-10-18T08:05:55.502Z,101253.81
2022-10-18T08:08:24.954Z,101244.00
2022-10-18T08:10:52.943Z,101245.09
2022-10-18T08:13:21.502Z,101235.41
2022-10-18T08:15:49.662Z,101231.81
2022-10-18T08:18:17.641Z,101229.78
2022-10-18T08:20:46.433Z,101233.75
2022-10-18T08:23:15.782Z,101228.66
2022-10-18T08:25:43.742Z,101219.47
2022-10-18T08:28:13.853Z,101216.44
2022-10-18T08:30:41.840Z,101211.56
2022-10-18T08:33:09.871Z,101211.84
2022-10-18T08:35:38.053Z,101210.75
2022-10-18T08:38:06.161Z,101210.16
2022-10-18T08:40:36.187Z,101203.06
2022-10-18T08:43:10.246Z,101199.03
2022-10-18T08:45:43.164Z,101195.94
2022-10-18T08:48:26.803Z,101195.41
2022-10-18T08:50:57.613Z,101190.69
2022-10-18T08:53:30.180Z,101183.84
2022-10-18T08:56:03.918Z,101181.81
2022-10-18T08:58:33.673Z,101179.34
2022-10-18T09:01:11.983Z,101172.47
2022-10-18T09:04:01.988Z,101168.31
2022-10-18T09:06:35.956Z,101170.84
2022-10-18T09:09:21.614Z,101158.31
2022-10-18T09:12:03.928Z,101161.28
2022-10-18T09:14:44.516Z,101160.53
2022-10-18T09:17:23.737Z,101162.84
2022-10-18T09:20:02.612Z,101151.47
2022-10-18T09:22:44.629Z,101149.56
2022-10-18T09:25:20.495Z,101147.56
2022-10-18T09:27:54.508Z,101148.69
2022-10-18T09:30:34.759Z,101154.31
2022-10-18T09:33:16.080Z,101147.34
2022-10-18T09:35:50.068Z,101149.16
2022-10-18T09:38:23.081Z,101139.25
2022-10-18T09:40:57.102Z,101139.72
2022-10-18T09:43:33.670Z,101135.41
2022-10-18T09:46:03.156Z,101138.97
2022-10-18T09:48:35.909Z,101127.66
2022-10-18T09:51:09.242Z,101124.47
2022-10-18T09:53:44.582Z,101137.84
2022-10-18T09:56:16.838Z,101113.88
2022-10-18T09:58:47.692Z,101123.28
2022-10-18T10:01:19.468Z,101124.91
2022-10-18T10:03:47.552Z,101112.69
2022-10-18T10:06:25.305Z,101109.97
2022-10-18T10:09:00.795Z,101105.06
2022-10-18T10:11:35.448Z,101100.16
2022-10-18T10:16:48.603Z,101092.25
2022-10-18T10:19:21.560Z,101093.31
2022-10-18T10:21:51.961Z,101090.97
2022-10-18T10:24:27.438Z,101087.78
2022-10-18T10:27:04.474Z,101083.91
2022-10-18T10:30:01.543Z,101077.72
2022-10-18T10:32:45.405Z,101073.47
2022-10-18T10:35:33.948Z,101063.69
2022-10-18T10:38:25.010Z,101061.66
2022-10-18T10:40:53.468Z,101056.97
2022-10-18T10:43:36.953Z,101058.94
2022-10-18T10:46:09.805Z,101056.31
2022-10-18T10:48:48.675Z,101053.09
2022-10-18T10:51:19.583Z,101051.56
2022-10-18T10:53:52.418Z,101046.84
2022-10-18T10:56:26.709Z,101038.50
2022-10-18T10:58:56.527Z,101037.09
2022-10-18T11:01:29.917Z,101037.59
2022-10-18T11:04:00.811Z,101033.72
2022-10-18T11:06:59.133Z,101026.66
2022-10-18T11:09:49.397Z,101015.28
2022-10-18T11:12:25.910Z,101013.84
2022-10-18T11:15:02.983Z,101002.44
2022-10-18T11:17:37.162Z,101000.47
2022-10-18T11:20:16.348Z,101006.78
2022-10-18T11:22:50.768Z,101005.47
2022-10-18T11:25:19.231Z,100999.69
2022-10-18T11:27:55.863Z,100999.56
2022-10-18T11:30:42.277Z,100985.00
2022-10-18T11:33:33.592Z,100987.72
2022-10-18T11:36:20.677Z,100978.72
2022-10-18T11:38:54.143Z,100983.97
2022-10-18T11:41:45.318Z,100980.91
2022-10-18T11:44:24.586Z,100967.53
2022-10-18T11:47:03.057Z,100963.19
2022-10-18T11:49:47.358Z,100960.75
2022-10-18T11:52:21.915Z,100961.00
2022-10-18T11:55:02.669Z,100959.75
2022-10-18T11:57:44.474Z,100947.25
2022-10-18T12:00:39.650Z,100941.03
2022-10-18T12:03:23.964Z,100939.81
2022-10-18T12:05:54.821Z,100930.56
2022-10-18T12:08:26.747Z,100929.34
2022-10-18T12:11:06.646Z,100928.38
2022-10-18T12:13:40.151Z,100925.72
2022-10-18T12:16:10.610Z,100922.81
2022-10-18T12:18:48.659Z,100918.06
2022-10-18T12:21:25.473Z,100916.56
2022-10-18T12:23:56.753Z,100917.19
2022-10-18T12:26:26.258Z,100905.53
2022-10-18T12:29:18.303Z,100911.09
2022-10-18T12:31:49.505Z,100907.69
2022-10-18T12:34:28.683Z,100889.19
2022-10-18T12:37:29.421Z,100891.63
2022-10-18T12:40:12.168Z,100889.09
2022-10-18T12:42:45.289Z,100885.09
2022-10-18T12:45:29.002Z,100873.88
2022-10-18T12:48:01.232Z,100873.88
2022-10-18T12:50:38.199Z,100874.63
2022-10-18T12:53:20.312Z,100867.31
2022-10-18T12:55:51.647Z,100862.69
2022-10-18T12:58:29.409Z,100862.69
2022-10-18T13:01:01.346Z,100862.69
2022-10-18T13:03:50.659Z,100864.41
2022-10-18T13:06:18.765Z,100850.03
2022-10-18T13:08:51.157Z,100852.00
2022-10-18T13:11:33.358Z,100847.22
2022-10-18T13:14:19.095Z,100837.88
2022-10-18T13:17:02.175Z,100838.13
2022-10-18T13:19:39.352Z,100832.91
2022-10-18T13:22:20.484Z,100836.66
2022-10-18T13:25:02.347Z,100837.78
2022-10-18T13:27:43.153Z,100836.47
2022-10-18T13:30:32.640Z,100837.91
2022-10-18T13:33:15.230Z,100835.38
2022-10-18T13:35:55.205Z,100834.50
2022-10-18T13:38:47.275Z,100834.78
2022-10-18T13:41:19.425Z,100837.69
2022-10-18T13:44:11.520Z,100838.78
2022-10-18T13:47:14.992Z,100824.31
2022-10-18T13:50:12.160Z,100827.25
2022-10-18T13:53:13.010Z,100820.69
2022-10-18T13:55:55.890Z,100826.75
2022-10-18T13:58:41.074Z,100825.28
2022-10-18T14:01:24.438Z,100815.09
2022-10-18T14:04:40.958Z,100814.09
2022-10-18T14:07:11.537Z,100802.19
2022-10-18T14:09:52.270Z,100804.34
2022-10-18T14:12:28.137Z,100799.97
2022-10-18T14:15:05.296Z,100799.72
2022-10-18T14:17:41.895Z,100786.25
2022-10-18T14:20:20.782Z,100793.41
2022-10-18T14:22:54.480Z,100791.25
2022-10-18T14:25:28.380Z,100792.69
2022-10-18T14:28:12.596Z,100791.44
2022-10-18T14:30:54.805Z,100792.56
2022-10-18T14:33:28.532Z,100785.13
2022-10-18T14:36:00.767Z,100787.19
2022-10-18T14:38:28.923Z,100788.88
2022-10-18T14:41:07.147Z,100779.72
2022-10-18T14:43:35.247Z,100773.38
2022-10-18T14:46:12.910Z,100772.03
2022-10-18T14:48:40.950Z,100767.00
2022-10-18T14:51:14.795Z,100762.03
2022-10-18T14:53:42.945Z,100765.97
2022-10-18T14:56:23.333Z,100756.75
2022-10-18T14:58:52.488Z,100759.88
2022-10-18T15:01:25.729Z,100753.31
2022-10-18T15:03:58.907Z,100745.25
2022-10-18T15:06:27.430Z,100746.44
2022-10-18T15:08:58.373Z,100747.13
2022-10-18T15:11:27.388Z,100759.19
2022-10-18T15:13:57.901Z,100751.75
2022-10-18T15:16:29.096Z,100751.56
2022-10-18T15:19:05.236Z,100748.59
2022-10-18T15:21:35.332Z,100739.47
2022-10-18T15:24:30.435Z,100733.06
2022-10-18T15:27:03.301Z,100740.75
2022-10-18T15:29:36.410Z,100747.59
2022-10-18T15:32:17.462Z,100735.88
2022-10-18T15:34:46.003Z,100741.63
2022-10-18T15:37:32.309Z,100732.59
2022-10-18T15:40:35.958Z,100733.75
2022-10-18T15:43:06.846Z,100729.28
2022-10-18T15:48:24.085Z,100732.47
2022-10-18T15:50:53.695Z,100736.53
2022-10-18T15:53:43.906Z,100731.66
2022-10-18T15:56:27.015Z,100736.41
2022-10-18T15:58:57.029Z,100733.34
2022-10-18T16:01:33.490Z,100739.19
2022-10-18T16:04:06.255Z,100731.66
2022-10-18T16:06:35.419Z,100727.78
2022-10-18T16:09:03.395Z,100717.31
2022-10-18T16:11:31.456Z,100715.47
2022-10-18T16:14:00.539Z,100717.50
2022-10-18T16:16:30.371Z,100723.75
2022-10-18T16:18:58.846Z,100729.44
2022-10-18T16:21:31.483Z,100734.22
2022-10-18T16:23:59.291Z,100734.97
2022-10-18T16:26:28.697Z,100732.19
2022-10-18T16:28:58.098Z,100728.56
2022-10-18T16:31:27.830Z,100733.50
2022-10-18T16:33:56.662Z,100738.13
2022-10-18T16:36:27.574Z,100737.28
2022-10-18T16:38:57.797Z,100741.97
2022-10-18T16:41:25.879Z,100745.66
2022-10-18T16:43:54.337Z,100747.94
2022-10-18T16:46:24.973Z,100745.59
2022-10-18T16:48:53.209Z,100752.00
2022-10-18T16:51:21.773Z,100745.16
2022-10-18T16:53:50.149Z,100744.06
2022-10-18T16:56:22.410Z,100739.88
2022-10-18T16:58:51.665Z,100745.84
2022-10-18T17:01:23.076Z,100736.44
2022-10-18T17:03:52.594Z,100734.47
2022-10-18T17:06:24.012Z,100740.34
2022-10-18T17:08:53.580Z,100739.16
2022-10-18T17:11:24.569Z,100737.25
2022-10-18T17:13:52.963Z,100741.16
2022-10-18T17:19:02.260Z,100742.16
2022-10-18T17:21:31.973Z,100739.91
2022-10-18T17:24:01.631Z,100748.09
2022-10-18T17:26:31.586Z,100753.16
2022-10-18T17:29:01.855Z,100747.50
2022-10-18T17:31:31.503Z,100750.41
2022-10-18T17:34:03.735Z,100752.56
2022-10-18T17:36:33.023Z,100752.75
2022-10-18T17:39:01.451Z,100745.13
2022-10-18T17:41:31.166Z,100740.16
2022-10-18T17:43:59.425Z,100739.22
2022-10-18T17:46:27.831Z,100734.88
2022-10-18T17:48:56.448Z,100726.47
2022-10-18T17:51:25.334Z,100735.78
2022-10-18T17:53:53.856Z,100739.34
2022-10-18T17:56:24.065Z,100726.59
2022-10-18T17:58:54.438Z,100722.84
2022-10-18T18:01:24.509Z,100729.06
2022-10-18T18:03:58.214Z,100736.03
2022-10-18T18:06:31.436Z,100736.22
2022-10-18T18:09:01.309Z,100732.06
2022-10-18T18:11:30.286Z,100722.56
2022-10-18T18:14:01.062Z,100725.84
2022-10-18T18:16:31.401Z,100729.72
2022-10-18T18:19:00.111Z,100721.38
2022-10-18T18:21:29.210Z,100734.97
2022-10-18T18:24:00.381Z,100720.56
2022-10-18T18:26:29.008Z,100715.72
2022-10-18T18:28:58.338Z,100721.59
2022-10-18T18:31:30.828Z,100712.63
2022-10-18T18:34:03.192Z,100715.63
2022-10-18T18:36:33.101Z,100720.34
2022-10-18T18:39:01.355Z,100718.78
2022-10-18T18:41:30.298Z,100714.47
2022-10-18T18:44:00.473Z,100717.34
2022-10-18T18:46:33.405Z,100712.31
2022-10-18T18:49:02.332Z,100706.41
2022-10-18T18:51:32.640Z,100702.91
2022-10-18T18:54:01.315Z,100698.78
2022-10-18T18:56:30.420Z,100692.97
2022-10-18T18:59:01.625Z,100693.25
2022-10-18T19:01:33.019Z,100699.84
2022-10-18T19:04:01.956Z,100695.84
2022-10-18T19:06:33.074Z,100685.78
2022-10-18T19:09:04.539Z,100694.59
2022-10-18T19:11:34.491Z,100691.94
2022-10-18T19:14:03.502Z,100693.81
2022-10-18T19:16:34.862Z,100690.38
2022-10-18T19:19:07.348Z,100681.41
2022-10-18T19:21:38.507Z,100690.13
2022-10-18T19:24:07.447Z,100687.34
2022-10-18T19:26:38.136Z,100693.47
2022-10-18T19:29:10.326Z,100687.34
2022-10-18T19:31:40.673Z,100682.22
2022-10-18T19:34:11.346Z,100678.78
2022-10-18T19:36:41.650Z,100686.63
2022-10-18T19:39:13.467Z,100682.25
2022-10-18T19:41:42.192Z,100686.22
2022-10-18T19:44:10.592Z,100692.63
2022-10-18T19:46:43.863Z,100680.63
2022-10-18T19:49:13.550Z,100690.31
2022-10-18T19:51:42.656Z,100682.41
2022-10-18T19:54:12.825Z,100672.81
2022-10-18T19:56:49.272Z,100682.50
2022-10-18T19:59:19.055Z,100686.91
2022-10-18T20:01:48.830Z,100677.22
2022-10-18T20:04:17.738Z,100678.94
2022-10-18T20:06:46.071Z,100679.88
2022-10-18T20:09:19.343Z,100680.06
2022-10-18T20:11:48.959Z,100677.47
2022-10-18T20:14:17.052Z,100673.13
2022-10-18T20:16:45.078Z,100673.41
2022-10-18T20:19:14.531Z,100671.00
2022-10-18T20:21:42.537Z,100666.78
2022-10-18T20:24:11.996Z,100667.19
2022-10-18T20:26:40.727Z,100646.81
2022-10-18T20:29:08.863Z,100662.53
2022-10-18T20:31:39.199Z,100667.31
2022-10-18T20:34:09.980Z,100663.91
2022-10-18T20:36:39.415Z,100660.53
2022-10-18T20:39:08.164Z,100657.88
2022-10-18T20:44:43.525Z,100661.75
2022-10-18T20:47:11.496Z,100662.53
2022-10-18T20:49:39.477Z,100657.88
2022-10-18T20:52:08.847Z,100651.38
2022-10-18T20:54:36.840Z,100656.16
2022-10-18T20:57:05.017Z,100646.56
2022-10-18T20:59:33.675Z,100641.09
2022-10-18T21:02:01.810Z,100644.63
2022-10-18T21:04:29.911Z,100641.81
2022-10-18T21:06:58.408Z,100642.75
2022-10-18T21:09:27.964Z,100641.09
2022-10-18T21:11:56.352Z,100634.81
2022-10-18T21:14:25.616Z,100632.97
2022-10-18T21:16:54.039Z,100635.47
2022-10-18T21:19:24.349Z,100637.06
2022-10-18T21:21:53.912Z,100640.47
2022-10-18T21:24:25.538Z,100641.97
2022-10-18T21:26:55.782Z,100640.00
2022-10-18T21:29:25.025Z,100639.88
2022-10-18T21:31:58.280Z,100638.28
2022-10-18T21:34:26.655Z,100636.44
2022-10-18T21:36:54.908Z,100632.84
2022-10-18T21:42:00.463Z,100623.94
2022-10-18T21:44:28.471Z,100620.72
2022-10-18T21:46:57.156Z,100607.66
2022-10-18T21:49:26.374Z,100614.91
2022-10-18T21:51:54.373Z,100591.53
2022-10-18T21:54:22.417Z,100592.88
2022-10-18T21:56:51.228Z,100589.97
2022-10-18T21:59:20.674Z,100596.56
2022-10-18T22:01:48.792Z,100597.09
2022-10-18T22:04:22.205Z,100591.59
2022-10-18T22:06:50.877Z,100584.44
2022-10-18T22:09:19.356Z,100582.50
2022-10-18T22:11:50.449Z,100584.06
2022-10-18T22:14:18.465Z,100585.53
2022-10-18T22:16:47.926Z,100585.41
2022-10-18T22:19:15.969Z,100583.31
2022-10-18T22:21:43.994Z,100586.47
2022-10-18T22:24:11.997Z,100572.06
2022-10-18T22:26:41.765Z,100579.56
2022-10-18T22:29:12.948Z,100576.69
2022-10-18T22:31:43.886Z,100582.94
2022-10-18T22:34:15.852Z,100573.44
2022-10-18T22:36:43.962Z,100566.97
2022-10-18T22:39:14.407Z,100570.66
2022-10-18T22:41:43.859Z,100557.59
2022-10-18T22:44:13.406Z,100566.50
2022-10-18T22:46:41.470Z,100569.09
2022-10-18T22:49:09.780Z,100574.19
2022-10-18T22:51:39.332Z,100570.50
2022-10-18T22:54:08.203Z,100570.25
2022-10-18T22:56:36.259Z,100566.81
2022-10-18T22:59:04.727Z,100567.66
2022-10-18T23:01:32.848Z,100570.44
2022-10-18T23:04:01.836Z,100574.50
2022-10-18T23:06:31.475Z,100567.53
2022-10-18T23:09:05.046Z,100573.50
2022-10-18T23:11:33.222Z,100558.34
2022-10-18T23:14:03.781Z,100565.28
2022-10-18T23:16:32.023Z,100557.47
2022-10-18T23:19:00.482Z,100557.16
2022-10-18T23:21:29.433Z,100558.00
2022-10-18T23:23:58.254Z,100552.31
2022-10-18T23:26:28.973Z,100558.31
2022-10-18T23:28:57.427Z,100546.91
2022-10-18T23:31:27.176Z,100545.06
2022-10-18T23:33:57.504Z,100541.50
2022-10-18T23:36:26.552Z,100544.91
2022-10-18T23:38:55.142Z,100554.47
2022-10-18T23:41:23.622Z,100548.38
2022-10-18T23:43:53.353Z,100547.63
2022-10-18T23:46:21.798Z,100545.34
2022-10-18T23:48:49.981Z,100544.63
2022-10-18T23:51:18.621Z,100540.91
2022-10-18T23:53:46.828Z,100533.94
2022-10-18T23:56:16.969Z,100534.66
2022-10-18T23:58:46.127Z,100529.66
